createdAt,value
2022-08-16T00:01:24.535Z,23.25
2022-08-16T00:03:52.756Z,23.21
2022-08-16T00:06:20.822Z,23.18
2022-08-16T00:08:48.728Z,23.18
2022-08-16T00:11:19.012Z,23.08
2022-08-16T00:13:53.744Z,23.13
2022-08-16T00:17:06.560Z,23.11
2022-08-16T00:19:13.398Z,23.12
2022-08-16T00:21:42.330Z,23.09
2022-08-16T00:24:12.345Z,23.08
2022-08-16T00:26:45.052Z,23.10
2022-08-16T00:29:15.629Z,23.11
2022-08-16T00:31:58.673Z,23.08
2022-08-16T00:34:44.672Z,23.05
2022-08-16T00:37:20.570Z,22.99
2022-08-16T00:39:57.997Z,23.00
2022-08-16T00:42:31.388Z,22.99
2022-08-16T00:45:08.738Z,22.96
2022-08-16T00:47:48.921Z,22.95
2022-08-16T00:50:20.319Z,22.91
2022-08-16T00:52:50.854Z,22.93
2022-08-16T00:55:23.318Z,22.90
2022-08-16T00:58:00.035Z,22.92
2022-08-16T01:00:32.321Z,22.94
2022-08-16T01:03:04.410Z,22.93
2022-08-16T01:05:33.440Z,22.94
2022-08-16T01:08:34.830Z,22.92
2022-08-16T01:10:52.902Z,22.90
2022-08-16T01:13:26.941Z,22.90
2022-08-16T01:16:00.993Z,22.85
2022-08-16T01:18:39.918Z,22.88
2022-08-16T01:21:33.379Z,22.86
2022-08-16T01:24:51.806Z,22.85
2022-08-16T01:27:06.451Z,22.86
2022-08-16T01:29:57.321Z,22.91
2022-08-16T01:32:33.708Z,22.91
2022-08-16T01:35:07.866Z,22.89
2022-08-16T01:37:42.314Z,22.92
2022-08-16T01:40:15.338Z,22.92
2022-08-16T01:42:47.939Z,22.95
2022-08-16T01:45:19.484Z,22.90
2022-08-16T01:47:51.111Z,22.87
2022-08-16T01:51:08.007Z,22.87
2022-08-16T01:53:11.149Z,22.78
2022-08-16T01:56:04.418Z,22.78
2022-08-16T01:58:35.784Z,22.78
2022-08-16T02:01:07.915Z,22.81
2022-08-16T02:03:36.752Z,22.77
2022-08-16T02:06:08.760Z,22.74
2022-08-16T02:08:36.872Z,22.76
2022-08-16T02:11:09.629Z,22.74
2022-08-16T02:13:41.923Z,22.72
2022-08-16T02:16:18.445Z,22.78
2022-08-16T02:18:47.704Z,22.80
2022-08-16T02:21:16.312Z,22.80
2022-08-16T02:23:44.532Z,22.81
2022-08-16T02:26:19.006Z,22.80
2022-08-16T02:28:47.928Z,22.78
2022-08-16T02:31:20.664Z,22.79
2022-08-16T02:34:09.392Z,22.75
2022-08-16T02:36:48.050Z,22.73
2022-08-16T02:39:20.219Z,22.72
2022-08-16T02:41:54.149Z,22.65
2022-08-16T02:44:26.904Z,22.67
2022-08-16T02:46:56.480Z,22.67
2022-08-16T02:49:58.603Z,22.63
2022-08-16T02:52:24.376Z,22.64
2022-08-16T02:54:55.525Z,22.64
2022-08-16T02:57:27.135Z,22.60
2022-08-16T02:59:56.155Z,22.58
2022-08-16T03:02:31.880Z,22.56
2022-08-16T03:05:02.313Z,22.57
2022-08-16T03:07:36.908Z,22.54
2022-08-16T03:10:07.706Z,22.53
2022-08-16T03:12:56.328Z,22.52
2022-08-16T03:15:27.665Z,22.49
2022-08-16T03:17:56.862Z,22.47
2022-08-16T03:20:31.897Z,22.49
2022-08-16T03:23:02.292Z,22.46
2022-08-16T03:25:44.197Z,22.42
2022-08-16T03:28:17.001Z,22.38
2022-08-16T03:30:46.205Z,22.33
2022-08-16T03:33:17.425Z,22.35
2022-08-16T03:36:30.078Z,22.31
2022-08-16T03:38:56.983Z,22.32
2022-08-16T03:41:29.323Z,22.32
2022-08-16T03:44:44.096Z,22.23
2022-08-16T03:47:04.184Z,22.33
2022-08-16T03:49:36.740Z,22.36
2022-08-16T03:52:07.826Z,22.36
2022-08-16T03:54:53.330Z,22.37
2022-08-16T03:57:32.061Z,22.35
2022-08-16T04:00:35.211Z,22.35
2022-08-16T04:03:07.521Z,22.39
2022-08-16T04:05:40.914Z,22.36
2022-08-16T04:08:22.902Z,22.41
2022-08-16T04:10:57.915Z,22.36
2022-08-16T04:14:00.469Z,22.32
2022-08-16T04:16:26.803Z,22.31
2022-08-16T04:19:01.366Z,22.29
2022-08-16T04:21:32.248Z,22.24
2022-08-16T04:24:01.684Z,22.20
2022-08-16T04:26:32.459Z,22.20
2022-08-16T04:29:17.115Z,22.07
2022-08-16T04:31:56.242Z,22.18
2022-08-16T04:34:30.227Z,22.10
2022-08-16T04:37:01.218Z,21.44
2022-08-16T04:39:44.865Z,22.10
2022-08-16T04:42:18.870Z,22.17
2022-08-16T04:44:58.275Z,22.15
2022-08-16T04:47:33.208Z,22.17
2022-08-16T04:50:08.013Z,21.25
2022-08-16T04:52:36.813Z,22.13
2022-08-16T04:55:08.394Z,22.15
2022-08-16T04:57:39.028Z,22.12
2022-08-16T05:00:32.868Z,21.97
2022-08-16T05:03:18.128Z,22.06
2022-08-16T05:05:59.355Z,22.10
2022-08-16T05:08:32.680Z,22.12
2022-08-16T05:11:09.938Z,22.10
2022-08-16T05:13:42.635Z,21.90
2022-08-16T05:16:20.090Z,22.14
2022-08-16T05:18:56.904Z,22.12
2022-08-16T05:21:28.372Z,22.17
2022-08-16T05:24:09.229Z,22.18
2022-08-16T05:26:40.830Z,22.19
2022-08-16T05:29:15.275Z,22.17
2022-08-16T05:31:53.008Z,22.24
2022-08-16T05:34:23.362Z,22.13
2022-08-16T05:36:57.282Z,22.24
2022-08-16T05:39:33.405Z,22.26
2022-08-16T05:42:06.499Z,22.25
2022-08-16T05:44:38.669Z,21.86
2022-08-16T05:47:08.469Z,22.12
2022-08-16T05:49:39.703Z,22.21
2022-08-16T05:52:13.482Z,22.31
2022-08-16T05:54:48.043Z,22.24
2022-08-16T05:57:34.718Z,22.29
2022-08-16T06:00:09.365Z,22.17
2022-08-16T06:02:40.935Z,22.35
2022-08-16T06:05:27.256Z,22.39
2022-08-16T06:07:59.034Z,22.39
2022-08-16T06:10:33.472Z,22.41
2022-08-16T06:13:05.095Z,22.29
2022-08-16T06:15:34.463Z,22.42
2022-08-16T06:18:04.275Z,22.29
2022-08-16T06:20:35.488Z,22.46
2022-08-16T06:23:19.433Z,22.45
2022-08-16T06:25:57.194Z,22.51
2022-08-16T06:28:34.748Z,22.54
2022-08-16T06:31:04.822Z,22.53
2022-08-16T06:33:41.835Z,22.38
2022-08-16T06:36:14.335Z,22.56
2022-08-16T06:38:55.978Z,22.32
2022-08-16T06:41:57.463Z,22.52
2022-08-16T06:44:43.930Z,22.54
2022-08-16T06:47:54.093Z,22.56
2022-08-16T06:50:31.187Z,22.62
2022-08-16T06:53:09.150Z,22.46
2022-08-16T06:55:43.261Z,22.54
2022-08-16T06:58:22.036Z,22.84
2022-08-16T07:00:53.086Z,22.74
2022-08-16T07:03:26.779Z,22.90
2022-08-16T07:05:57.981Z,22.53
2022-08-16T07:08:33.307Z,22.77
2022-08-16T07:11:01.663Z,22.98
2022-08-16T07:14:03.586Z,22.43
2022-08-16T07:16:21.651Z,23.02
2022-08-16T07:18:59.286Z,23.00
2022-08-16T07:21:46.712Z,22.87
2022-08-16T07:24:30.914Z,23.11
2022-08-16T07:27:08.534Z,23.12
2022-08-16T07:29:41.548Z,23.05
2022-08-16T07:32:11.283Z,23.10
2022-08-16T07:34:48.232Z,22.93
2022-08-16T07:37:17.881Z,23.26
2022-08-16T07:40:01.798Z,23.26
2022-08-16T07:42:40.984Z,23.17
2022-08-16T07:45:10.601Z,23.25
2022-08-16T07:47:43.978Z,23.31
2022-08-16T07:50:56.661Z,23.25
2022-08-16T07:53:04.573Z,23.22
2022-08-16T07:55:45.476Z,23.34
2022-08-16T07:58:34.810Z,23.11
2022-08-16T08:01:10.642Z,23.56
2022-08-16T08:03:49.067Z,23.29
2022-08-16T08:06:25.115Z,23.36
2022-08-16T08:08:57.604Z,23.36
2022-08-16T08:11:30.612Z,23.59
2022-08-16T08:14:03.693Z,23.60
2022-08-16T08:16:38.937Z,23.70
2022-08-16T08:19:19.693Z,23.59
2022-08-16T08:22:00.232Z,23.68
2022-08-16T08:24:50.311Z,23.73
2022-08-16T08:27:24.186Z,23.61
2022-08-16T08:30:48.913Z,23.57
2022-08-16T08:33:02.359Z,23.61
2022-08-16T08:35:37.415Z,23.80
2022-08-16T08:38:08.385Z,23.95
2022-08-16T08:40:39.015Z,23.96
2022-08-16T08:43:18.227Z,23.97
2022-08-16T08:45:56.562Z,23.84
2022-08-16T08:48:33.360Z,23.80
2022-08-16T08:51:09.034Z,23.76
2022-08-16T08:53:44.020Z,24.09
2022-08-16T08:56:22.523Z,24.12
2022-08-16T08:58:58.856Z,24.01
2022-08-16T09:01:42.720Z,23.95
2022-08-16T09:04:14.797Z,24.13
2022-08-16T09:06:47.509Z,24.16
2022-08-16T09:09:17.587Z,24.18
2022-08-16T09:11:53.796Z,24.05
2022-08-16T09:14:38.714Z,24.19
2022-08-16T09:17:14.142Z,24.28
2022-08-16T09:19:57.180Z,24.18
2022-08-16T09:22:28.937Z,24.40
2022-08-16T09:25:09.837Z,24.45
2022-08-16T09:27:56.845Z,24.28
2022-08-16T09:30:34.729Z,24.53
2022-08-16T09:33:14.267Z,24.54
2022-08-16T09:35:42.988Z,24.60
2022-08-16T09:38:22.293Z,24.67
2022-08-16T09:41:01.024Z,24.69
2022-08-16T09:44:00.251Z,24.67
2022-08-16T09:46:45.267Z,24.72
2022-08-16T09:49:08.494Z,24.75
2022-08-16T09:51:37.514Z,24.81
2022-08-16T09:54:09.675Z,24.86
2022-08-16T09:56:39.543Z,24.87
2022-08-16T09:59:20.956Z,24.92
2022-08-16T10:01:52.252Z,25.01
2022-08-16T10:04:31.295Z,25.05
2022-08-16T10:07:11.987Z,25.11
2022-08-16T10:09:53.744Z,25.13
2022-08-16T10:12:43.261Z,25.26
2022-08-16T10:15:16.001Z,25.34
2022-08-16T10:18:01.134Z,25.59
2022-08-16T10:20:34.555Z,25.58
2022-08-16T10:23:07.412Z,25.78
2022-08-16T10:27:03.666Z,25.89
2022-08-16T10:28:29.951Z,26.13
2022-08-16T10:31:00.286Z,26.11
2022-08-16T10:33:34.599Z,26.30
2022-08-16T10:36:09.753Z,26.57
2022-08-16T10:38:42.031Z,26.98
2022-08-16T10:41:11.483Z,27.38
2022-08-16T10:43:44.127Z,27.64
2022-08-16T10:46:40.042Z,27.83
2022-08-16T10:49:05.283Z,28.11
2022-08-16T10:52:01.789Z,28.33
2022-08-16T10:54:29.048Z,28.59
2022-08-16T10:56:58.044Z,28.81
2022-08-16T10:59:38.316Z,28.96
2022-08-16T11:02:58.007Z,29.09
2022-08-16T11:05:06.234Z,29.31
2022-08-16T11:07:52.359Z,29.32
2022-08-16T11:16:27.438Z,29.79
2022-08-16T11:19:04.555Z,29.90
2022-08-16T11:22:23.336Z,30.02
2022-08-16T11:24:40.257Z,30.30
2022-08-16T11:27:23.943Z,30.39
2022-08-16T11:29:55.122Z,30.62
2022-08-16T11:32:31.773Z,30.67
2022-08-16T11:35:15.033Z,30.87
2022-08-16T11:38:47.639Z,30.95
2022-08-16T11:40:52.598Z,31.45
2022-08-16T11:43:30.986Z,31.47
2022-08-16T11:46:44.563Z,31.55
2022-08-16T11:48:55.595Z,31.67
2022-08-16T11:51:23.473Z,31.78
2022-08-16T11:53:52.961Z,32.01
2022-08-16T11:56:39.577Z,32.15
2022-08-16T11:59:12.857Z,32.25
2022-08-16T12:01:54.704Z,32.30
2022-08-16T12:04:24.144Z,32.54
2022-08-16T12:06:54.579Z,32.63
2022-08-16T12:09:27.238Z,32.78
2022-08-16T12:11:57.626Z,33.00
2022-08-16T12:14:26.172Z,32.73
2022-08-16T12:16:58.945Z,32.60
2022-08-16T12:19:34.058Z,32.73
2022-08-16T12:22:05.750Z,32.75
2022-08-16T12:24:50.953Z,32.90
2022-08-16T12:27:20.694Z,32.97
2022-08-16T12:29:52.202Z,32.95
2022-08-16T12:32:27.152Z,32.51
2022-08-16T12:35:08.889Z,32.30
2022-08-16T12:37:37.733Z,31.70
2022-08-16T12:40:24.651Z,31.10
2022-08-16T12:42:58.899Z,30.64
2022-08-16T12:45:29.926Z,30.33
2022-08-16T12:48:33.269Z,30.09
2022-08-16T12:51:04.575Z,29.90
2022-08-16T12:53:39.951Z,29.79
2022-08-16T12:56:11.439Z,29.92
2022-08-16T12:58:49.420Z,30.53
2022-08-16T13:01:20.401Z,31.25
2022-08-16T13:03:59.239Z,31.75
2022-08-16T13:06:39.074Z,32.06
2022-08-16T13:09:20.220Z,32.22
2022-08-16T13:12:00.170Z,32.34
2022-08-16T13:14:33.513Z,32.40
2022-08-16T13:17:04.018Z,32.30
2022-08-16T13:20:03.308Z,32.61
2022-08-16T13:22:24.341Z,32.68
2022-08-16T13:24:53.124Z,32.71
2022-08-16T13:28:02.431Z,32.16
2022-08-16T13:30:36.439Z,31.61
2022-08-16T13:33:00.418Z,31.81
2022-08-16T13:35:34.534Z,32.03
2022-08-16T13:38:03.011Z,32.07
2022-08-16T13:40:31.413Z,32.14
2022-08-16T13:43:01.366Z,32.21
2022-08-16T13:45:36.201Z,32.21
2022-08-16T13:48:06.269Z,32.19
2022-08-16T13:50:49.611Z,32.10
2022-08-16T13:53:24.374Z,32.12
2022-08-16T13:55:58.597Z,32.11
2022-08-16T13:58:37.291Z,32.09
2022-08-16T14:01:17.489Z,32.19
2022-08-16T14:03:46.618Z,32.01
2022-08-16T14:06:15.611Z,31.42
2022-08-16T14:08:58.789Z,31.04
2022-08-16T14:11:33.792Z,30.73
2022-08-16T14:14:05.367Z,30.54
2022-08-16T14:16:34.972Z,30.40
2022-08-16T14:19:03.117Z,30.25
2022-08-16T14:21:35.519Z,30.06
2022-08-16T14:24:12.841Z,30.02
2022-08-16T14:26:51.198Z,30.03
2022-08-16T14:29:22.921Z,30.00
2022-08-16T14:31:53.607Z,29.95
2022-08-16T14:34:25.637Z,29.93
2022-08-16T14:36:54.020Z,29.86
2022-08-16T14:39:23.156Z,29.78
2022-08-16T14:41:53.710Z,29.79
2022-08-16T14:44:26.166Z,29.74
2022-08-16T14:46:54.955Z,29.77
2022-08-16T14:49:23.879Z,29.76
2022-08-16T14:51:52.095Z,29.73
2022-08-16T14:54:20.294Z,29.64
2022-08-16T14:56:55.303Z,29.70
2022-08-16T14:59:24.948Z,29.74
2022-08-16T15:01:59.598Z,29.72
2022-08-16T15:04:39.679Z,29.71
2022-08-16T15:07:11.202Z,29.75
2022-08-16T15:09:44.648Z,29.63
2022-08-16T15:12:30.732Z,29.61
2022-08-16T15:15:04.367Z,29.57
2022-08-16T15:17:41.650Z,29.49
2022-08-16T15:20:12.912Z,29.50
2022-08-16T15:22:47.990Z,29.37
2022-08-16T15:25:18.960Z,29.26
2022-08-16T15:27:54.596Z,29.17
2022-08-16T15:30:58.410Z,29.16
2022-08-16T15:33:17.468Z,29.10
2022-08-16T15:38:57.088Z,28.91
2022-08-16T15:41:45.246Z,29.10
2022-08-16T15:44:22.734Z,29.10
2022-08-16T15:46:56.645Z,29.02
2022-08-16T15:49:37.626Z,29.01
2022-08-16T15:52:11.027Z,28.98
2022-08-16T15:54:43.836Z,28.86
2022-08-16T15:57:22.612Z,28.95
2022-08-16T15:59:52.504Z,28.92
2022-08-16T16:02:31.092Z,28.93
2022-08-16T16:05:02.380Z,28.94
2022-08-16T16:07:33.781Z,28.89
2022-08-16T16:10:07.876Z,28.86
2022-08-16T16:12:51.563Z,28.82
2022-08-16T16:15:25.816Z,28.90
2022-08-16T16:17:59.197Z,28.81
2022-08-16T16:20:35.605Z,28.91
2022-08-16T16:23:11.006Z,28.89
2022-08-16T16:25:40.079Z,28.84
2022-08-16T16:28:51.284Z,28.81
2022-08-16T16:31:01.523Z,28.84
2022-08-16T16:33:33.823Z,28.63
2022-08-16T16:36:05.715Z,28.77
2022-08-16T16:38:35.138Z,28.51
2022-08-16T16:41:09.077Z,28.74
2022-08-16T16:43:38.525Z,28.78
2022-08-16T16:46:41.370Z,28.82
2022-08-16T16:48:58.098Z,28.85
2022-08-16T16:51:28.160Z,28.67
2022-08-16T16:53:57.074Z,28.72
2022-08-16T16:56:36.884Z,28.64
2022-08-16T16:59:07.496Z,28.66
2022-08-16T17:01:57.755Z,28.68
2022-08-16T17:04:31.850Z,28.72
2022-08-16T17:07:01.637Z,28.68
2022-08-16T17:09:30.137Z,28.66
2022-08-16T17:12:23.515Z,28.53
2022-08-16T17:15:00.568Z,28.53
2022-08-16T17:17:29.689Z,28.38
2022-08-16T17:20:01.907Z,28.40
2022-08-16T17:22:32.690Z,28.35
2022-08-16T17:25:01.514Z,28.23
2022-08-16T17:27:37.380Z,28.29
2022-08-16T17:30:15.718Z,28.22
2022-08-16T17:32:47.064Z,27.99
2022-08-16T17:35:21.374Z,28.27
2022-08-16T17:37:52.475Z,28.25
2022-08-16T17:40:37.286Z,28.22
2022-08-16T17:43:18.561Z,28.00
2022-08-16T17:45:47.952Z,28.18
2022-08-16T17:48:15.905Z,28.20
2022-08-16T17:50:45.478Z,28.15
2022-08-16T17:53:20.227Z,28.09
2022-08-16T17:55:50.458Z,27.99
2022-08-16T17:58:23.425Z,27.94
2022-08-16T18:00:53.942Z,27.75
2022-08-16T18:04:08.914Z,27.54
2022-08-16T18:06:16.804Z,27.72
2022-08-16T18:08:48.621Z,27.53
2022-08-16T18:11:26.127Z,27.59
2022-08-16T18:13:56.427Z,27.54
2022-08-16T18:16:24.422Z,27.47
2022-08-16T18:18:52.385Z,27.48
2022-08-16T18:21:39.464Z,27.43
2022-08-16T18:24:08.782Z,27.34
2022-08-16T18:26:37.265Z,27.28
2022-08-16T18:29:05.559Z,27.30
2022-08-16T18:31:33.429Z,26.94
2022-08-16T18:34:02.635Z,27.23
2022-08-16T18:36:35.029Z,27.06
2022-08-16T18:39:02.886Z,27.18
2022-08-16T18:41:33.549Z,27.15
2022-08-16T18:44:26.720Z,27.03
2022-08-16T18:46:55.680Z,27.09
2022-08-16T18:49:28.643Z,26.88
2022-08-16T18:51:59.759Z,26.98
2022-08-16T18:54:29.182Z,26.95
2022-08-16T18:56:58.218Z,26.94
2022-08-16T18:59:33.010Z,26.91
2022-08-16T19:02:04.903Z,26.91
2022-08-16T19:04:48.088Z,26.87
2022-08-16T19:07:30.859Z,26.86
2022-08-16T19:09:59.851Z,26.83
2022-08-16T19:12:37.714Z,26.82
2022-08-16T19:15:15.954Z,26.80
2022-08-16T19:17:44.677Z,26.79
2022-08-16T19:20:14.915Z,26.76
2022-08-16T19:23:04.566Z,26.74
2022-08-16T19:25:48.296Z,26.73
2022-08-16T19:28:48.903Z,26.71
2022-08-16T19:31:12.115Z,26.69
2022-08-16T19:33:40.573Z,26.14
2022-08-16T19:36:31.776Z,26.67
2022-08-16T19:39:04.381Z,26.58
2022-08-16T19:41:37.045Z,26.67
2022-08-16T19:44:05.839Z,26.63
2022-08-16T19:46:38.308Z,26.63
2022-08-16T19:49:06.652Z,26.64
2022-08-16T19:51:37.651Z,26.62
2022-08-16T19:54:07.165Z,26.58
2022-08-16T19:56:34.962Z,26.53
2022-08-16T19:59:20.935Z,26.18
2022-08-16T20:01:51.905Z,26.46
2022-08-16T20:04:21.620Z,26.46
2022-08-16T20:06:49.646Z,26.43
2022-08-16T20:09:19.403Z,26.47
2022-08-16T20:11:48.279Z,26.47
2022-08-16T20:14:24.128Z,26.35
2022-08-16T20:16:54.894Z,26.45
2022-08-16T20:19:22.768Z,26.43
2022-08-16T20:21:50.823Z,26.44
2022-08-16T20:24:34.152Z,26.16
2022-08-16T20:27:03.700Z,26.41
2022-08-16T20:29:31.641Z,26.39
2022-08-16T20:31:59.909Z,26.37
2022-08-16T20:34:27.802Z,26.32
2022-08-16T20:36:55.709Z,26.31
2022-08-16T20:39:25.208Z,26.30
2022-08-16T20:41:53.073Z,26.28
2022-08-16T20:44:22.867Z,26.26
2022-08-16T20:46:52.903Z,26.23
2022-08-16T20:49:20.788Z,26.17
2022-08-16T20:51:52.637Z,26.19
2022-08-16T20:54:25.252Z,26.09
2022-08-16T20:56:53.048Z,26.18
2022-08-16T20:59:20.866Z,26.14
2022-08-16T21:01:50.345Z,26.15
2022-08-16T21:04:19.749Z,26.15
2022-08-16T21:06:54.045Z,26.13
2022-08-16T21:09:23.349Z,26.05
2022-08-16T21:11:53.899Z,26.06
2022-08-16T21:14:21.829Z,26.04
2022-08-16T21:16:49.654Z,26.01
2022-08-16T21:19:17.677Z,25.96
2022-08-16T21:21:45.596Z,25.91
2022-08-16T21:24:14.198Z,25.90
2022-08-16T21:26:55.447Z,25.87
2022-08-16T21:29:28.455Z,25.86
2022-08-16T21:32:12.191Z,25.87
2022-08-16T21:34:47.800Z,25.76
2022-08-16T21:37:15.882Z,25.80
2022-08-16T21:39:46.956Z,25.77
2022-08-16T21:42:17.309Z,25.74
2022-08-16T21:44:46.805Z,25.69
2022-08-16T21:47:14.643Z,25.65
2022-08-16T21:49:42.499Z,25.66
2022-08-16T21:52:22.629Z,25.62
2022-08-16T21:54:57.049Z,25.61
2022-08-16T21:57:25.190Z,25.59
2022-08-16T21:59:55.773Z,25.55
2022-08-16T22:02:27.885Z,25.53
2022-08-16T22:05:06.969Z,25.52
2022-08-16T22:07:34.907Z,25.50
2022-08-16T22:11:04.643Z,25.49
2022-08-16T22:12:51.867Z,25.46
2022-08-16T22:15:25.677Z,25.44
2022-08-16T22:17:54.762Z,25.42
2022-08-16T22:20:23.506Z,25.39
2022-08-16T22:22:51.780Z,25.33
2022-08-16T22:25:20.028Z,25.31
2022-08-16T22:27:47.908Z,25.28
2022-08-16T22:30:16.124Z,25.24
2022-08-16T22:32:45.962Z,25.23
2022-08-16T22:35:14.569Z,25.19
2022-08-16T22:38:50.525Z,25.13
2022-08-16T22:40:30.555Z,25.02
2022-08-16T22:42:58.372Z,25.08
2022-08-16T22:45:26.212Z,25.05
2022-08-16T22:47:55.343Z,25.07
2022-08-16T22:50:23.180Z,24.99
2022-08-16T22:52:56.707Z,24.96
2022-08-16T22:55:26.174Z,24.94
2022-08-16T22:57:54.712Z,24.95
2022-08-16T23:00:26.201Z,24.86
2022-08-16T23:03:01.402Z,24.89
2022-08-16T23:05:34.353Z,24.87
2022-08-16T23:08:02.319Z,24.78
2022-08-16T23:10:30.432Z,24.81
2022-08-16T23:13:00.952Z,24.70
2022-08-16T23:15:30.461Z,24.76
2022-08-16T23:18:01.811Z,24.71
2022-08-16T23:20:30.533Z,24.70
2022-08-16T23:23:19.803Z,24.71
2022-08-16T23:25:55.070Z,24.67
2022-08-16T23:28:26.466Z,24.64
2022-08-16T23:30:54.960Z,24.62
2022-08-16T23:33:26.231Z,24.63
2022-08-16T23:35:58.246Z,24.61
2022-08-16T23:38:37.486Z,24.58
2022-08-16T23:41:09.179Z,24.50
2022-08-16T23:43:43.426Z,24.56
2022-08-16T23:46:15.116Z,24.51
2022-08-16T23:49:58.438Z,24.49
2022-08-16T23:51:33.405Z,24.47
2022-08-16T23:54:01.229Z,24.46
2022-08-16T23:56:37.039Z,24.44
2022-08-16T23:59:08.625Z,24.44
